createdAt,value
2022-08-20T00:01:35.943Z,19.93
2022-08-20T00:03:44.792Z,19.89
2022-08-20T00:05:57.652Z,19.83
2022-08-20T00:08:01.272Z,19.80
2022-08-20T00:10:06.922Z,19.78
2022-08-20T00:12:13.685Z,19.77
2022-08-20T00:14:16.754Z,19.79
2022-08-20T00:16:21.588Z,19.79
2022-08-20T00:18:25.121Z,19.83
2022-08-20T00:20:30.379Z,19.85
2022-08-20T00:22:33.352Z,19.84
2022-08-20T00:24:36.412Z,19.81
2022-08-20T00:26:52.368Z,19.80
2022-08-20T00:28:57.221Z,19.76
2022-08-20T00:31:00.803Z,19.75
2022-08-20T00:33:11.055Z,19.71
2022-08-20T00:35:15.756Z,19.66
2022-08-20T00:37:18.904Z,19.64
2022-08-20T00:39:21.981Z,19.60
2022-08-20T00:41:27.508Z,19.57
2022-08-20T00:43:35.118Z,19.53
2022-08-20T00:45:39.524Z,19.50
2022-08-20T00:47:51.058Z,19.45
2022-08-20T00:49:54.347Z,19.46
2022-08-20T00:51:59.847Z,19.46
2022-08-20T00:54:06.515Z,19.47
2022-08-20T00:56:11.410Z,19.49
2022-08-20T00:58:15.075Z,19.51
2022-08-20T01:00:22.073Z,19.55
2022-08-20T01:02:28.592Z,19.60
2022-08-20T01:04:34.621Z,19.63
2022-08-20T01:06:37.855Z,19.66
2022-08-20T01:08:42.568Z,19.67
2022-08-20T01:10:48.200Z,19.67
2022-08-20T01:12:55.580Z,19.66
2022-08-20T01:15:03.837Z,19.63
2022-08-20T01:17:09.212Z,19.64
2022-08-20T01:19:29.432Z,19.60
2022-08-20T01:21:34.281Z,19.56
2022-08-20T01:23:43.191Z,19.51
2022-08-20T01:25:50.195Z,19.50
2022-08-20T01:27:55.440Z,19.48
2022-08-20T01:29:59.274Z,19.46
2022-08-20T01:32:02.719Z,19.43
2022-08-20T01:34:08.387Z,19.40
2022-08-20T01:36:12.732Z,19.38
2022-08-20T01:38:16.012Z,19.36
2022-08-20T01:40:28.938Z,19.30
2022-08-20T01:42:58.915Z,19.22
2022-08-20T01:45:04.390Z,19.17
2022-08-20T01:47:15.931Z,19.14
2022-08-20T01:49:23.328Z,19.10
2022-08-20T01:51:28.730Z,19.09
2022-08-20T01:53:34.111Z,19.06
2022-08-20T01:55:38.316Z,19.03
2022-08-20T01:57:43.082Z,18.98
2022-08-20T01:59:46.577Z,18.93
2022-08-20T02:01:50.178Z,18.92
2022-08-20T02:03:54.162Z,18.90
2022-08-20T02:05:57.920Z,18.94
2022-08-20T02:08:01.122Z,18.97
2022-08-20T02:10:06.607Z,18.99
2022-08-20T02:12:11.073Z,19.01
2022-08-20T02:14:15.670Z,19.01
2022-08-20T02:16:18.986Z,19.03
2022-08-20T02:18:22.003Z,19.06
2022-08-20T02:20:29.247Z,19.07
2022-08-20T02:22:37.911Z,19.11
2022-08-20T02:24:41.515Z,19.14
2022-08-20T02:26:45.021Z,19.14
2022-08-20T02:28:49.464Z,19.15
2022-08-20T02:30:55.337Z,19.16
2022-08-20T02:32:58.939Z,19.14
2022-08-20T02:35:03.216Z,19.08
2022-08-20T02:37:07.530Z,19.04
2022-08-20T02:39:12.873Z,19.02
2022-08-20T02:41:16.403Z,18.99
2022-08-20T02:43:20.061Z,18.97
2022-08-20T02:45:23.738Z,18.93
2022-08-20T02:47:28.751Z,18.89
2022-08-20T02:49:31.805Z,18.88
2022-08-20T02:51:34.770Z,18.84
2022-08-20T02:53:39.612Z,18.81
2022-08-20T02:55:42.611Z,18.79
2022-08-20T02:57:45.965Z,18.76
2022-08-20T02:59:53.778Z,18.76
2022-08-20T03:02:00.440Z,18.75
2022-08-20T03:04:05.835Z,18.74
2022-08-20T03:06:10.199Z,18.74
2022-08-20T03:08:14.599Z,18.73
2022-08-20T03:10:18.456Z,18.74
2022-08-20T03:12:21.420Z,18.73
2022-08-20T03:14:24.677Z,18.71
2022-08-20T03:16:27.638Z,18.70
2022-08-20T03:18:36.073Z,18.70
2022-08-20T03:20:41.055Z,18.70
2022-08-20T03:22:44.081Z,18.70
2022-08-20T03:24:47.081Z,18.69
2022-08-20T03:26:50.186Z,18.66
2022-08-20T03:28:53.208Z,18.64
2022-08-20T03:30:57.903Z,18.65
2022-08-20T03:33:01.022Z,18.63
2022-08-20T03:35:04.743Z,18.61
2022-08-20T03:37:11.574Z,18.59
2022-08-20T03:39:15.431Z,18.56
2022-08-20T03:41:19.005Z,18.54
2022-08-20T03:43:22.156Z,18.55
2022-08-20T03:45:26.228Z,18.54
2022-08-20T03:47:29.374Z,18.53
2022-08-20T03:49:32.412Z,18.54
2022-08-20T03:51:56.373Z,18.57
2022-08-20T03:54:00.429Z,18.62
2022-08-20T03:56:06.163Z,18.66
2022-08-20T03:58:10.621Z,18.70
2022-08-20T04:00:15.646Z,18.76
2022-08-20T04:02:18.801Z,18.79
2022-08-20T04:04:22.257Z,18.76
2022-08-20T04:06:25.512Z,18.76
2022-08-20T04:08:30.396Z,18.75
2022-08-20T04:10:35.161Z,18.73
2022-08-20T04:12:40.718Z,18.71
2022-08-20T04:14:51.743Z,18.71
2022-08-20T04:16:54.800Z,18.69
2022-08-20T04:19:02.218Z,18.69
2022-08-20T04:21:06.446Z,18.66
2022-08-20T04:23:10.217Z,18.64
2022-08-20T04:25:16.066Z,18.63
2022-08-20T04:27:21.225Z,18.63
2022-08-20T04:29:25.908Z,18.61
2022-08-20T04:31:35.448Z,18.60
2022-08-20T04:33:38.660Z,18.59
2022-08-20T04:35:41.752Z,18.58
2022-08-20T04:37:46.124Z,18.55
2022-08-20T04:40:09.994Z,18.54
2022-08-20T04:42:12.290Z,18.53
2022-08-20T04:44:16.696Z,18.53
2022-08-20T04:46:19.708Z,18.57
2022-08-20T04:48:24.443Z,18.58
2022-08-20T04:50:27.560Z,18.55
2022-08-20T04:52:32.869Z,18.58
2022-08-20T04:54:35.842Z,18.63
2022-08-20T04:56:39.621Z,18.67
2022-08-20T04:58:47.665Z,18.68
2022-08-20T05:00:54.191Z,18.69
2022-08-20T05:02:57.299Z,18.74
2022-08-20T05:05:00.252Z,18.80
2022-08-20T05:07:03.269Z,18.85
2022-08-20T05:09:06.251Z,18.90
2022-08-20T05:11:34.365Z,18.96
2022-08-20T05:13:33.369Z,19.02
2022-08-20T05:15:37.008Z,19.06
2022-08-20T05:17:42.552Z,19.09
2022-08-20T05:19:46.578Z,19.14
2022-08-20T05:21:53.605Z,19.19
2022-08-20T05:23:56.637Z,19.25
2022-08-20T05:25:59.669Z,19.30
2022-08-20T05:28:12.511Z,19.35
2022-08-20T05:30:15.711Z,19.40
2022-08-20T05:32:18.712Z,19.45
2022-08-20T05:34:23.779Z,19.48
2022-08-20T05:36:26.969Z,19.52
2022-08-20T05:38:31.002Z,19.56
2022-08-20T05:40:34.485Z,19.58
2022-08-20T05:42:37.648Z,19.57
2022-08-20T05:44:42.057Z,19.59
2022-08-20T05:46:47.693Z,19.60
2022-08-20T05:48:50.671Z,19.62
2022-08-20T05:50:55.804Z,19.62
2022-08-20T05:52:58.897Z,19.60
2022-08-20T05:55:01.977Z,19.54
2022-08-20T05:57:05.464Z,19.49
2022-08-20T05:59:10.053Z,19.47
2022-08-20T06:01:13.102Z,19.45
2022-08-20T06:03:34.147Z,19.47
2022-08-20T06:05:37.192Z,19.47
2022-08-20T06:07:41.603Z,19.49
2022-08-20T06:09:44.624Z,19.50
2022-08-20T06:11:47.668Z,19.52
2022-08-20T06:13:50.648Z,19.52
2022-08-20T06:15:53.597Z,19.55
2022-08-20T06:17:58.499Z,19.57
2022-08-20T06:20:03.852Z,19.59
2022-08-20T06:22:19.689Z,19.61
2022-08-20T06:24:29.491Z,19.60
2022-08-20T06:26:34.412Z,19.62
2022-08-20T06:28:37.455Z,19.62
2022-08-20T06:30:40.717Z,19.65
2022-08-20T06:32:43.704Z,19.68
2022-08-20T06:34:49.787Z,19.72
2022-08-20T06:36:53.694Z,19.75
2022-08-20T06:38:58.365Z,19.80
2022-08-20T06:41:02.987Z,19.84
2022-08-20T06:43:09.823Z,19.88
2022-08-20T06:45:13.748Z,19.92
2022-08-20T06:47:18.457Z,19.95
2022-08-20T06:49:21.499Z,19.98
2022-08-20T06:51:24.513Z,20.02
2022-08-20T06:53:27.503Z,20.04
2022-08-20T06:55:30.600Z,20.08
2022-08-20T06:57:35.210Z,20.11
2022-08-20T06:59:38.208Z,20.13
2022-08-20T07:01:41.349Z,20.14
2022-08-20T07:03:54.490Z,20.12
2022-08-20T07:05:59.482Z,20.06
2022-08-20T07:08:02.604Z,20.04
2022-08-20T07:10:07.660Z,20.04
2022-08-20T07:12:10.898Z,20.06
2022-08-20T07:14:15.583Z,20.10
2022-08-20T07:16:18.597Z,20.09
2022-08-20T07:18:28.644Z,20.06
2022-08-20T07:20:33.331Z,20.04
2022-08-20T07:22:37.026Z,20.04
2022-08-20T07:24:41.543Z,20.04
2022-08-20T07:26:45.600Z,20.07
2022-08-20T07:28:48.713Z,20.10
2022-08-20T07:31:13.611Z,20.11
2022-08-20T07:33:17.622Z,20.15
2022-08-20T07:35:21.725Z,20.18
2022-08-20T07:37:24.973Z,20.21
2022-08-20T07:39:28.534Z,20.23
2022-08-20T07:41:34.579Z,20.26
2022-08-20T07:43:39.493Z,20.31
2022-08-20T07:45:43.057Z,20.32
2022-08-20T07:47:54.145Z,20.30
2022-08-20T07:49:57.152Z,20.35
2022-08-20T07:52:00.147Z,20.43
2022-08-20T07:54:03.134Z,20.53
2022-08-20T07:56:08.259Z,20.59
2022-08-20T07:58:12.737Z,20.65
2022-08-20T08:00:17.485Z,20.71
2022-08-20T08:02:20.763Z,20.78
2022-08-20T08:04:25.726Z,20.80
2022-08-20T08:06:31.407Z,20.84
2022-08-20T08:08:35.425Z,20.89
2022-08-20T08:10:38.655Z,20.94
2022-08-20T08:12:45.228Z,21.00
2022-08-20T08:14:49.384Z,21.06
2022-08-20T08:16:54.242Z,21.13
2022-08-20T08:18:58.434Z,21.18
2022-08-20T08:21:02.813Z,21.24
2022-08-20T08:23:05.931Z,21.28
2022-08-20T08:25:10.062Z,21.36
2022-08-20T08:27:13.520Z,21.44
2022-08-20T08:29:17.025Z,21.52
2022-08-20T08:31:20.126Z,21.61
2022-08-20T08:33:32.405Z,21.70
2022-08-20T08:35:35.570Z,21.79
2022-08-20T08:37:39.998Z,21.88
2022-08-20T08:39:43.170Z,21.96
2022-08-20T08:41:49.413Z,22.02
2022-08-20T08:43:54.081Z,22.14
2022-08-20T08:46:01.370Z,22.31
2022-08-20T08:48:05.514Z,22.43
2022-08-20T08:50:49.929Z,22.56
2022-08-20T08:52:52.058Z,22.73
2022-08-20T08:54:57.086Z,22.84
2022-08-20T08:57:01.076Z,22.87
2022-08-20T08:59:06.035Z,22.96
2022-08-20T09:01:53.295Z,23.17
2022-08-20T09:03:39.878Z,23.35
2022-08-20T09:05:47.960Z,23.62
2022-08-20T09:07:53.282Z,23.71
2022-08-20T09:09:57.499Z,23.78
2022-08-20T09:12:06.517Z,23.77
2022-08-20T09:14:09.499Z,23.76
2022-08-20T09:16:13.055Z,23.76
2022-08-20T09:18:16.000Z,23.72
2022-08-20T09:20:19.490Z,23.66
2022-08-20T09:22:26.595Z,23.55
2022-08-20T09:24:31.041Z,23.56
2022-08-20T09:26:38.579Z,23.44
2022-08-20T09:28:42.186Z,23.37
2022-08-20T09:30:45.587Z,23.36
2022-08-20T09:32:49.547Z,23.51
2022-08-20T09:34:56.235Z,23.54
2022-08-20T09:36:59.311Z,23.58
2022-08-20T09:39:03.113Z,23.61
2022-08-20T09:41:07.944Z,23.59
2022-08-20T09:43:10.969Z,23.71
2022-08-20T09:45:14.704Z,23.68
2022-08-20T09:47:18.302Z,23.68
2022-08-20T09:49:21.281Z,23.74
2022-08-20T09:51:24.418Z,23.84
2022-08-20T09:53:27.423Z,24.06
2022-08-20T09:55:34.994Z,24.49
2022-08-20T09:57:39.456Z,24.71
2022-08-20T09:59:42.569Z,24.76
2022-08-20T10:01:45.597Z,24.72
2022-08-20T10:03:49.864Z,24.88
2022-08-20T10:05:52.916Z,24.90
2022-08-20T10:07:56.179Z,25.04
2022-08-20T10:09:59.312Z,25.11
2022-08-20T10:12:02.347Z,25.28
2022-08-20T10:14:07.351Z,25.47
2022-08-20T10:16:10.495Z,25.70
2022-08-20T10:18:13.556Z,25.92
2022-08-20T10:20:18.318Z,25.84
2022-08-20T10:22:21.334Z,25.89
2022-08-20T10:24:24.711Z,26.00
2022-08-20T10:26:27.844Z,26.12
2022-08-20T10:28:30.916Z,26.08
2022-08-20T10:30:35.443Z,26.08
2022-08-20T10:32:38.458Z,25.98
2022-08-20T10:34:41.687Z,25.91
2022-08-20T10:36:44.765Z,25.91
2022-08-20T10:38:49.005Z,25.86
2022-08-20T10:40:52.321Z,25.78
2022-08-20T10:42:55.802Z,25.71
2022-08-20T10:44:58.857Z,25.49
2022-08-20T10:47:16.974Z,25.27
2022-08-20T10:49:20.069Z,25.17
2022-08-20T10:51:32.737Z,25.06
2022-08-20T10:53:36.166Z,25.04
2022-08-20T10:55:39.221Z,25.03
2022-08-20T10:57:43.628Z,25.01
2022-08-20T10:59:48.751Z,24.96
2022-08-20T11:01:51.835Z,24.93
2022-08-20T11:03:56.199Z,24.92
2022-08-20T11:05:59.298Z,24.99
2022-08-20T11:08:04.025Z,25.03
2022-08-20T11:10:13.600Z,25.14
2022-08-20T11:12:17.855Z,25.20
2022-08-20T11:14:20.830Z,25.33
2022-08-20T11:16:23.962Z,25.47
2022-08-20T11:18:26.990Z,25.60
2022-08-20T11:20:32.061Z,25.69
2022-08-20T11:22:35.120Z,25.77
2022-08-20T11:24:38.681Z,25.83
2022-08-20T11:26:41.784Z,25.95
2022-08-20T11:28:44.883Z,26.06
2022-08-20T11:30:50.027Z,26.10
2022-08-20T11:32:53.410Z,26.19
2022-08-20T11:34:56.452Z,26.32
2022-08-20T11:37:00.860Z,26.43
2022-08-20T11:39:04.073Z,26.49
2022-08-20T11:41:07.244Z,26.35
2022-08-20T11:43:14.777Z,26.08
2022-08-20T11:45:19.382Z,25.81
2022-08-20T11:47:24.764Z,25.56
2022-08-20T11:49:27.761Z,25.38
2022-08-20T11:51:30.802Z,25.19
2022-08-20T11:53:41.951Z,25.03
2022-08-20T11:55:45.100Z,24.88
2022-08-20T11:57:49.947Z,24.77
2022-08-20T11:59:54.240Z,24.69
2022-08-20T12:02:03.176Z,24.68
2022-08-20T12:04:06.695Z,24.65
2022-08-20T12:06:09.751Z,24.61
2022-08-20T12:08:26.451Z,24.60
2022-08-20T12:10:32.816Z,24.54
2022-08-20T12:12:35.773Z,24.53
2022-08-20T12:14:38.847Z,24.55
2022-08-20T12:16:41.873Z,24.59
2022-08-20T12:18:45.248Z,24.66
2022-08-20T12:20:48.263Z,24.71
2022-08-20T12:22:55.157Z,24.78
2022-08-20T12:24:58.597Z,24.87
2022-08-20T12:27:12.092Z,24.95
2022-08-20T12:29:15.131Z,25.03
2022-08-20T12:31:18.248Z,25.07
2022-08-20T12:33:21.243Z,25.10
2022-08-20T12:35:24.580Z,25.11
2022-08-20T12:37:29.968Z,25.16
2022-08-20T12:39:34.586Z,25.19
2022-08-20T12:41:37.708Z,25.19
2022-08-20T12:43:42.130Z,25.16
2022-08-20T12:45:45.202Z,25.13
2022-08-20T12:47:49.725Z,25.11
2022-08-20T12:49:55.370Z,25.07
2022-08-20T12:51:58.757Z,25.06
2022-08-20T12:54:01.733Z,25.07
2022-08-20T12:56:05.501Z,25.08
2022-08-20T12:58:10.356Z,25.12
2022-08-20T13:00:19.227Z,25.13
2022-08-20T13:02:22.487Z,25.17
2022-08-20T13:04:26.060Z,25.20
2022-08-20T13:06:29.064Z,25.21
2022-08-20T13:08:32.139Z,25.24
2022-08-20T13:10:37.122Z,25.25
2022-08-20T13:12:40.213Z,25.27
2022-08-20T13:14:43.673Z,25.30
2022-08-20T13:16:48.060Z,25.29
2022-08-20T13:18:56.339Z,25.27
2022-08-20T13:20:59.391Z,25.19
2022-08-20T13:23:02.695Z,25.19
2022-08-20T13:25:06.498Z,25.13
2022-08-20T13:27:11.286Z,25.21
2022-08-20T13:29:15.264Z,25.23
2022-08-20T13:31:18.290Z,25.28
2022-08-20T13:33:24.365Z,25.28
2022-08-20T13:35:27.673Z,25.23
2022-08-20T13:37:31.328Z,25.12
2022-08-20T13:39:34.607Z,24.96
2022-08-20T13:41:37.708Z,24.86
2022-08-20T13:43:40.695Z,24.78
2022-08-20T13:45:43.751Z,24.72
2022-08-20T13:47:47.167Z,24.66
2022-08-20T13:49:56.717Z,24.62
2022-08-20T13:51:59.825Z,24.56
2022-08-20T13:54:04.713Z,24.50
2022-08-20T13:56:08.458Z,24.37
2022-08-20T13:58:11.492Z,24.29
2022-08-20T14:00:18.215Z,24.25
2022-08-20T14:02:21.587Z,24.23
2022-08-20T14:04:24.704Z,24.23
2022-08-20T14:06:29.065Z,24.18
2022-08-20T14:08:32.118Z,24.11
2022-08-20T14:10:35.220Z,23.97
2022-08-20T14:12:38.312Z,23.82
2022-08-20T14:14:41.609Z,23.82
2022-08-20T14:16:44.631Z,23.85
2022-08-20T14:18:51.054Z,23.82
2022-08-20T14:20:55.811Z,23.81
2022-08-20T14:23:01.202Z,23.83
2022-08-20T14:25:06.219Z,23.88
2022-08-20T14:27:09.979Z,23.94
2022-08-20T14:29:13.070Z,23.98
2022-08-20T14:31:16.096Z,24.02
2022-08-20T14:33:19.084Z,24.08
2022-08-20T14:35:22.911Z,24.14
2022-08-20T14:37:27.495Z,24.21
2022-08-20T14:39:31.875Z,24.26
2022-08-20T14:41:35.126Z,24.30
2022-08-20T14:43:38.148Z,24.30
2022-08-20T14:45:42.361Z,24.31
2022-08-20T14:47:48.926Z,24.32
2022-08-20T14:49:59.570Z,24.35
2022-08-20T14:52:02.544Z,24.35
2022-08-20T14:54:05.898Z,24.37
2022-08-20T14:56:11.082Z,24.38
2022-08-20T14:58:15.023Z,24.39
2022-08-20T15:00:20.932Z,24.38
2022-08-20T15:02:24.098Z,24.39
2022-08-20T15:04:27.324Z,24.39
2022-08-20T15:06:31.141Z,24.38
2022-08-20T15:08:34.136Z,24.38
2022-08-20T15:10:37.491Z,24.39
2022-08-20T15:12:43.100Z,24.39
2022-08-20T15:14:48.178Z,24.43
2022-08-20T15:16:52.144Z,24.48
2022-08-20T15:18:56.522Z,24.51
2022-08-20T15:21:02.838Z,24.53
2022-08-20T15:23:06.468Z,24.57
2022-08-20T15:25:11.332Z,24.60
2022-08-20T15:27:22.318Z,24.65
2022-08-20T15:29:27.100Z,24.71
2022-08-20T15:31:30.145Z,24.76
2022-08-20T15:33:33.191Z,24.78
2022-08-20T15:35:36.774Z,24.85
2022-08-20T15:37:41.878Z,24.85
2022-08-20T15:39:45.673Z,24.90
2022-08-20T15:41:49.065Z,24.95
2022-08-20T15:43:52.012Z,25.00
2022-08-20T15:45:57.874Z,25.03
2022-08-20T15:48:03.618Z,25.09
2022-08-20T15:50:14.144Z,25.14
2022-08-20T15:52:18.089Z,25.23
2022-08-20T15:54:24.357Z,25.28
2022-08-20T15:56:42.031Z,25.31
2022-08-20T15:58:52.605Z,25.33
2022-08-20T16:01:15.347Z,25.36
2022-08-20T16:03:40.722Z,25.36
2022-08-20T16:05:47.652Z,25.38
2022-08-20T16:08:00.855Z,25.39
2022-08-20T16:10:15.672Z,25.42
2022-08-20T16:12:21.478Z,25.44
2022-08-20T16:14:26.984Z,25.44
2022-08-20T16:16:37.560Z,25.45
2022-08-20T16:18:41.307Z,25.45
2022-08-20T16:20:47.846Z,25.46
2022-08-20T16:22:53.197Z,25.45
2022-08-20T16:24:57.116Z,25.42
2022-08-20T16:27:10.421Z,25.37
2022-08-20T16:29:19.846Z,25.33
2022-08-20T16:31:25.883Z,25.29
2022-08-20T16:33:33.357Z,25.31
2022-08-20T16:35:39.375Z,25.32
2022-08-20T16:37:46.598Z,25.31
2022-08-20T16:39:56.275Z,25.30
2022-08-20T16:41:59.629Z,25.30
2022-08-20T16:44:13.174Z,25.31
2022-08-20T16:46:18.912Z,25.33
2022-08-20T16:48:22.174Z,25.32
2022-08-20T16:50:35.464Z,25.33
2022-08-20T16:52:40.075Z,25.32
2022-08-20T16:54:44.529Z,25.31
2022-08-20T16:56:50.664Z,25.27
2022-08-20T16:58:56.537Z,25.28
2022-08-20T17:01:09.350Z,25.27
2022-08-20T17:03:38.585Z,25.25
2022-08-20T17:05:47.972Z,25.22
2022-08-20T17:07:54.360Z,25.22
2022-08-20T17:10:11.641Z,25.21
2022-08-20T17:12:19.359Z,25.20
2022-08-20T17:14:22.364Z,25.20
2022-08-20T17:16:25.360Z,25.16
2022-08-20T17:18:31.021Z,25.11
2022-08-20T17:20:45.883Z,25.05
2022-08-20T17:22:52.175Z,25.02
2022-08-20T17:24:55.893Z,25.00
2022-08-20T17:27:01.581Z,24.96
2022-08-20T17:29:13.421Z,24.94
2022-08-20T17:31:21.212Z,24.87
2022-08-20T17:33:36.590Z,24.81
2022-08-20T17:35:42.996Z,24.78
2022-08-20T17:37:51.495Z,24.73
2022-08-20T17:40:08.021Z,24.69
2022-08-20T17:42:16.229Z,24.64
2022-08-20T17:44:22.568Z,24.61
2022-08-20T17:46:27.830Z,24.55
2022-08-20T17:48:34.269Z,24.49
2022-08-20T17:50:41.108Z,24.42
2022-08-20T17:52:49.273Z,24.39
2022-08-20T17:54:52.366Z,24.37
2022-08-20T17:56:59.308Z,24.32
2022-08-20T17:59:10.245Z,24.26
2022-08-20T18:01:15.677Z,24.22
2022-08-20T18:03:22.858Z,24.16
2022-08-20T18:05:26.165Z,24.14
2022-08-20T18:07:35.255Z,24.08
2022-08-20T18:09:44.672Z,24.03
2022-08-20T18:11:54.052Z,24.00
2022-08-20T18:14:10.659Z,23.99
2022-08-20T18:16:18.111Z,23.95
2022-08-20T18:18:27.471Z,23.88
2022-08-20T18:20:57.570Z,23.84
2022-08-20T18:23:03.565Z,23.80
2022-08-20T18:25:18.668Z,23.76
2022-08-20T18:27:25.216Z,23.72
2022-08-20T18:29:31.424Z,23.67
2022-08-20T18:31:41.199Z,23.60
2022-08-20T18:33:45.525Z,23.51
2022-08-20T18:35:49.835Z,23.45
2022-08-20T18:37:53.352Z,23.40
2022-08-20T18:40:16.009Z,23.34
2022-08-20T18:42:30.373Z,23.29
2022-08-20T18:44:44.315Z,23.20
2022-08-20T18:46:53.697Z,23.15
2022-08-20T18:48:59.420Z,23.07
2022-08-20T18:51:04.722Z,23.00
2022-08-20T18:53:11.905Z,22.91
2022-08-20T18:55:30.338Z,22.85
2022-08-20T18:57:41.359Z,22.79
2022-08-20T18:59:57.151Z,22.74
2022-08-20T19:02:00.843Z,22.69
2022-08-20T19:04:16.316Z,22.62
2022-08-20T19:06:30.180Z,22.56
2022-08-20T19:08:40.511Z,22.51
2022-08-20T19:10:49.384Z,22.43
2022-08-20T19:13:25.907Z,22.34
2022-08-20T19:15:29.319Z,22.25
2022-08-20T19:17:55.318Z,22.24
2022-08-20T19:20:02.485Z,22.20
2022-08-20T19:22:05.889Z,22.13
2022-08-20T19:24:09.739Z,22.12
2022-08-20T19:26:25.957Z,22.13
2022-08-20T19:28:31.403Z,22.09
2022-08-20T19:30:37.294Z,22.02
2022-08-20T19:32:46.317Z,21.96
2022-08-20T19:34:53.080Z,21.87
2022-08-20T19:36:59.519Z,21.82
2022-08-20T19:39:15.382Z,21.78
2022-08-20T19:41:26.750Z,21.77
2022-08-20T19:43:42.833Z,21.73
2022-08-20T19:45:47.769Z,21.71
2022-08-20T19:47:58.138Z,21.69
2022-08-20T19:50:15.361Z,21.65
2022-08-20T19:52:27.759Z,21.57
2022-08-20T19:54:31.276Z,21.48
2022-08-20T19:56:41.813Z,21.41
2022-08-20T19:58:45.535Z,21.37
2022-08-20T20:00:50.601Z,21.33
2022-08-20T20:02:53.929Z,21.31
2022-08-20T20:04:57.851Z,21.29
2022-08-20T20:07:01.286Z,21.25
2022-08-20T20:09:07.342Z,21.23
2022-08-20T20:11:17.839Z,21.19
2022-08-20T20:13:23.228Z,21.15
2022-08-20T20:15:27.944Z,21.11
2022-08-20T20:17:34.916Z,21.06
2022-08-20T20:19:46.098Z,21.01
2022-08-20T20:21:53.252Z,20.98
2022-08-20T20:23:59.287Z,20.95
2022-08-20T20:26:04.412Z,20.92
2022-08-20T20:28:11.462Z,20.90
2022-08-20T20:30:23.066Z,20.85
2022-08-20T20:32:26.352Z,20.83
2022-08-20T20:34:31.774Z,20.79
2022-08-20T20:36:38.917Z,20.75
2022-08-20T20:38:53.868Z,20.66
2022-08-20T20:40:59.021Z,20.63
2022-08-20T20:43:05.984Z,20.60
2022-08-20T20:45:20.517Z,20.56
2022-08-20T20:47:26.561Z,20.52
2022-08-20T20:49:32.472Z,20.45
2022-08-20T20:51:40.046Z,20.39
2022-08-20T20:53:53.083Z,20.36
2022-08-20T20:55:58.459Z,20.33
2022-08-20T20:58:02.737Z,20.31
2022-08-20T21:00:07.658Z,20.29
2022-08-20T21:02:12.215Z,20.24
2022-08-20T21:04:15.255Z,20.22
2022-08-20T21:06:18.787Z,20.19
2022-08-20T21:08:21.958Z,20.14
2022-08-20T21:10:27.412Z,20.12
2022-08-20T21:12:30.605Z,20.08
2022-08-20T21:14:33.720Z,20.06
2022-08-20T21:16:36.970Z,20.04
2022-08-20T21:18:41.469Z,19.97
2022-08-20T21:20:44.874Z,19.91
2022-08-20T21:22:47.950Z,19.87
2022-08-20T21:24:51.498Z,19.86
2022-08-20T21:26:55.302Z,19.83
2022-08-20T21:28:58.412Z,19.80
2022-08-20T21:31:02.002Z,19.79
2022-08-20T21:33:05.090Z,19.77
2022-08-20T21:35:11.273Z,19.74
2022-08-20T21:37:14.504Z,19.71
2022-08-20T21:39:17.831Z,19.63
2022-08-20T21:41:29.758Z,19.59
2022-08-20T21:43:33.382Z,19.57
2022-08-20T21:45:38.295Z,19.53
2022-08-20T21:47:41.846Z,19.49
2022-08-20T21:49:44.939Z,19.46
2022-08-20T21:51:50.104Z,19.45
2022-08-20T21:53:53.133Z,19.41
2022-08-20T21:55:56.315Z,19.39
2022-08-20T21:57:59.807Z,19.37
2022-08-20T22:00:06.291Z,19.34
2022-08-20T22:02:09.508Z,19.27
2022-08-20T22:04:12.944Z,19.22
2022-08-20T22:06:15.925Z,19.22
2022-08-20T22:08:21.267Z,19.20
2022-08-20T22:10:29.063Z,19.16
2022-08-20T22:12:32.147Z,19.11
2022-08-20T22:14:35.186Z,19.10
2022-08-20T22:16:38.335Z,19.09
2022-08-20T22:18:46.555Z,19.07
2022-08-20T22:20:49.660Z,19.06
2022-08-20T22:22:53.048Z,19.04
2022-08-20T22:24:57.596Z,19.05
2022-08-20T22:27:01.281Z,19.00
2022-08-20T22:29:04.814Z,18.94
2022-08-20T22:31:08.240Z,18.89
2022-08-20T22:33:15.238Z,18.86
2022-08-20T22:35:18.256Z,18.85
2022-08-20T22:37:21.380Z,18.84
2022-08-20T22:39:24.391Z,18.83
2022-08-20T22:41:29.271Z,18.79
2022-08-20T22:43:32.282Z,18.77
2022-08-20T22:45:36.123Z,18.77
2022-08-20T22:47:39.296Z,18.75
2022-08-20T22:49:44.282Z,18.70
2022-08-20T22:51:47.312Z,18.67
2022-08-20T22:53:50.423Z,18.64
2022-08-20T22:55:54.246Z,18.60
2022-08-20T22:57:59.668Z,18.59
2022-08-20T23:00:06.272Z,18.57
2022-08-20T23:02:12.884Z,18.54
2022-08-20T23:04:23.299Z,18.51
2022-08-20T23:06:26.912Z,18.47
2022-08-20T23:08:30.231Z,18.44
2022-08-20T23:10:38.029Z,18.39
2022-08-20T23:12:41.086Z,18.36
2022-08-20T23:14:45.619Z,18.33
2022-08-20T23:16:59.160Z,18.31
2022-08-20T23:19:02.553Z,18.25
2022-08-20T23:21:05.768Z,18.18
2022-08-20T23:23:08.972Z,18.12
2022-08-20T23:25:12.871Z,18.11
2022-08-20T23:27:18.737Z,18.07
2022-08-20T23:29:25.526Z,18.07
2022-08-20T23:31:30.449Z,18.06
2022-08-20T23:33:33.414Z,18.05
2022-08-20T23:35:38.108Z,18.02
2022-08-20T23:37:43.063Z,18.02
2022-08-20T23:39:46.514Z,18.02
2022-08-20T23:41:49.672Z,18.00
2022-08-20T23:43:52.729Z,18.00
2022-08-20T23:45:56.611Z,17.97
2022-08-20T23:48:01.139Z,17.89
2022-08-20T23:50:04.944Z,17.86
2022-08-20T23:52:08.085Z,17.83
2022-08-20T23:54:11.089Z,17.81
2022-08-20T23:56:14.385Z,17.81
2022-08-20T23:58:17.510Z,17.82
